Terminal Aerodrome Forecast
Issued by NWS

Home | Current Version | Previous Version | Text Only | Print | Product List | Glossary On
Versions: 1 2 3 4 5 6 7 8 9 10 11 12 13 14 15 16
000
FTUS45 KRIW 260500
TAFCPR
TAF
KCPR 260531Z 2606/2706 VRB05KT 1 1/2SM -SN OVC014
     FM261400 24006KT P6SM SCT024 BKN035
     FM261900 23012G22KT P6SM SCT040 BKN080=

USA.gov is the U.S. government's official web portal to all federal, state and local government web resources and services.